createdAt,value
2023-04-07T00:00:42.581Z,41.58
2023-04-07T00:03:44.422Z,41.72
2023-04-07T00:06:46.148Z,41.31
2023-04-07T00:09:47.719Z,41.55
2023-04-07T00:12:49.262Z,41.40
2023-04-07T00:15:50.873Z,41.46
2023-04-07T00:18:52.546Z,41.66
2023-04-07T00:21:54.444Z,41.46
2023-04-07T00:24:56.024Z,41.73
2023-04-07T00:27:57.886Z,41.69
2023-04-07T00:30:59.479Z,41.76
2023-04-07T00:34:01.151Z,41.67
2023-04-07T00:37:02.761Z,41.79
2023-04-07T00:40:05.195Z,41.75
2023-04-07T00:43:06.810Z,41.73
2023-04-07T00:46:08.509Z,41.55
2023-04-07T00:49:11.342Z,41.53
2023-04-07T00:52:14.650Z,41.70
2023-04-07T00:55:16.302Z,41.66
2023-04-07T00:58:18.014Z,41.90
2023-04-07T01:01:24.915Z,41.82
2023-04-07T01:04:26.465Z,41.59
2023-04-07T01:07:36.613Z,41.71
2023-04-07T01:10:50.091Z,41.83
2023-04-07T01:13:54.405Z,41.92
2023-04-07T01:16:59.830Z,41.96
2023-04-07T01:20:08.003Z,41.88
2023-04-07T01:23:17.790Z,41.78
2023-04-07T01:26:23.292Z,42.11
2023-04-07T01:29:44.780Z,42.00
2023-04-07T01:32:51.877Z,41.85
2023-04-07T01:35:55.183Z,41.87
2023-04-07T01:38:59.042Z,41.96
2023-04-07T01:42:04.544Z,41.93
2023-04-07T01:45:07.817Z,41.87
2023-04-07T01:48:09.852Z,41.92
2023-04-07T01:54:17.861Z,42.16
2023-04-07T01:57:19.399Z,42.02
2023-04-07T02:00:21.233Z,41.95
2023-04-07T02:03:34.846Z,41.90
2023-04-07T02:06:43.416Z,42.37
2023-04-07T02:09:48.361Z,42.42
2023-04-07T02:12:50.037Z,42.03
2023-04-07T02:15:54.766Z,42.23
2023-04-07T02:18:56.778Z,42.27
2023-04-07T02:22:01.450Z,42.50
2023-04-07T02:25:03.058Z,42.27
2023-04-07T02:28:06.014Z,42.51
2023-04-07T02:31:07.615Z,42.49
2023-04-07T02:34:09.384Z,42.13
2023-04-07T02:37:11.038Z,42.42
2023-04-07T02:40:13.264Z,42.39
2023-04-07T02:43:14.970Z,42.59
2023-04-07T02:46:16.783Z,42.68
2023-04-07T02:49:18.374Z,42.66
2023-04-07T02:52:19.903Z,42.40
2023-04-07T02:55:21.486Z,42.58
2023-04-07T02:58:23.068Z,42.24
2023-04-07T03:01:24.662Z,42.73
2023-04-07T03:04:26.525Z,42.65
2023-04-07T03:07:28.375Z,42.71
2023-04-07T03:10:29.943Z,42.52
2023-04-07T03:13:32.327Z,42.40
2023-04-07T03:16:33.947Z,42.77
2023-04-07T03:19:35.525Z,42.42
2023-04-07T03:22:37.091Z,42.79
2023-04-07T03:25:38.693Z,42.89
2023-04-07T03:28:40.579Z,42.72
2023-04-07T03:31:42.192Z,42.95
2023-04-07T03:34:43.784Z,42.59
2023-04-07T03:37:45.428Z,42.65
2023-04-07T03:40:47.173Z,42.87
2023-04-07T03:43:48.706Z,42.51
2023-04-07T03:46:50.816Z,42.84
2023-04-07T03:49:52.331Z,42.92
2023-04-07T03:52:53.899Z,43.00
2023-04-07T03:55:55.511Z,42.75
2023-04-07T03:58:57.215Z,42.93
2023-04-07T04:01:58.963Z,42.97
2023-04-07T04:05:00.623Z,42.91
2023-04-07T04:08:02.189Z,42.64
2023-04-07T04:11:03.756Z,42.74
2023-04-07T04:14:06.586Z,42.95
2023-04-07T04:17:08.143Z,43.08
2023-04-07T04:20:10.260Z,42.84
2023-04-07T04:23:11.811Z,43.22
2023-04-07T04:26:13.408Z,43.13
2023-04-07T04:29:15.027Z,42.84
2023-04-07T04:32:17.913Z,42.86
2023-04-07T04:35:19.634Z,42.82
2023-04-07T04:38:21.302Z,42.95
2023-04-07T04:41:22.860Z,43.16
2023-04-07T04:44:24.462Z,42.92
2023-04-07T04:47:26.228Z,43.29
2023-04-07T04:50:27.775Z,43.16
2023-04-07T04:53:29.449Z,43.11
2023-04-07T04:56:31.020Z,42.92
2023-04-07T04:59:32.558Z,43.06
2023-04-07T05:02:34.397Z,43.20
2023-04-07T05:05:36.243Z,43.32
2023-04-07T05:08:37.796Z,43.27
2023-04-07T05:11:41.260Z,43.26
2023-04-07T05:14:42.814Z,43.34
2023-04-07T05:17:44.486Z,43.13
2023-04-07T05:20:48.560Z,43.14
2023-04-07T05:23:50.362Z,43.11
2023-04-07T05:26:52.090Z,43.26
2023-04-07T05:29:53.651Z,43.40
2023-04-07T05:32:55.379Z,43.10
2023-04-07T05:35:56.968Z,43.01
2023-04-07T05:38:58.584Z,42.98
2023-04-07T05:42:02.195Z,43.04
2023-04-07T05:45:04.808Z,42.99
2023-04-07T05:48:06.595Z,43.14
2023-04-07T05:51:08.234Z,43.20
2023-04-07T05:54:09.814Z,43.01
2023-04-07T05:57:11.432Z,42.88
2023-04-07T06:00:13.918Z,43.12
2023-04-07T06:03:15.596Z,42.85
2023-04-07T06:06:17.160Z,42.87
2023-04-07T06:09:18.672Z,42.88
2023-04-07T06:12:20.504Z,43.40
2023-04-07T06:15:22.094Z,43.02
2023-04-07T06:18:23.799Z,43.08
2023-04-07T06:21:27.436Z,42.97
2023-04-07T06:24:28.991Z,43.29
2023-04-07T06:27:30.710Z,42.81
2023-04-07T06:30:32.298Z,42.89
2023-04-07T06:33:33.902Z,42.91
2023-04-07T06:36:35.672Z,42.84
2023-04-07T06:39:38.333Z,42.93
2023-04-07T06:42:39.945Z,43.16
2023-04-07T06:45:41.565Z,43.10
2023-04-07T06:48:43.218Z,43.01
2023-04-07T06:51:44.910Z,42.95
2023-04-07T06:54:46.715Z,42.83
2023-04-07T06:57:48.391Z,43.07
2023-04-07T07:00:50.032Z,43.00
2023-04-07T07:03:51.982Z,43.10
2023-04-07T07:06:56.053Z,42.85
2023-04-07T07:09:57.577Z,42.83
2023-04-07T07:12:59.114Z,42.84
2023-04-07T07:16:01.327Z,42.93
2023-04-07T07:19:03.007Z,42.85
2023-04-07T07:22:04.829Z,42.68
2023-04-07T07:25:06.738Z,42.83
2023-04-07T07:28:09.355Z,42.73
2023-04-07T07:31:13.247Z,42.59
2023-04-07T07:34:14.950Z,42.60
2023-04-07T07:37:16.642Z,42.54
2023-04-07T07:40:18.637Z,42.55
2023-04-07T07:43:20.402Z,42.55
2023-04-07T07:46:23.796Z,42.46
2023-04-07T07:49:25.529Z,42.55
2023-04-07T07:52:27.173Z,42.57
2023-04-07T07:55:29.305Z,42.60
2023-04-07T07:58:30.982Z,42.54
2023-04-07T08:01:32.858Z,42.43
2023-04-07T08:04:35.712Z,42.39
2023-04-07T08:07:37.757Z,42.39
2023-04-07T08:10:39.386Z,42.36
2023-04-07T08:13:45.440Z,42.33
2023-04-07T08:16:47.579Z,42.39
2023-04-07T08:19:49.192Z,42.32
2023-04-07T08:22:51.152Z,42.10
2023-04-07T08:25:52.729Z,42.05
2023-04-07T08:28:56.040Z,42.08
2023-04-07T08:31:57.635Z,41.99
2023-04-07T08:34:59.210Z,41.98
2023-04-07T08:38:00.755Z,41.94
2023-04-07T08:41:10.539Z,41.95
2023-04-07T08:44:13.538Z,41.92
2023-04-07T08:47:17.810Z,41.72
2023-04-07T08:50:19.833Z,41.48
2023-04-07T08:53:28.246Z,41.61
2023-04-07T08:56:31.027Z,41.38
2023-04-07T08:59:33.799Z,41.47
2023-04-07T09:02:38.978Z,41.31
2023-04-07T09:05:40.902Z,41.31
2023-04-07T09:08:42.426Z,41.15
2023-04-07T09:11:44.303Z,41.16
2023-04-07T09:14:46.094Z,41.02
2023-04-07T09:17:48.458Z,41.03
2023-04-07T09:21:01.956Z,41.10
2023-04-07T09:24:21.486Z,41.05
2023-04-07T09:27:23.204Z,40.92
2023-04-07T09:30:25.373Z,40.76
2023-04-07T09:33:28.357Z,40.70
2023-04-07T09:36:42.331Z,40.88
2023-04-07T09:39:53.948Z,40.67
2023-04-07T09:42:55.764Z,40.59
2023-04-07T09:46:08.530Z,40.61
2023-04-07T09:49:10.146Z,40.45
2023-04-07T09:52:11.709Z,40.52
2023-04-07T09:55:14.613Z,40.43
2023-04-07T09:58:17.066Z,40.25
2023-04-07T10:01:20.640Z,40.04
2023-04-07T10:04:23.412Z,40.02
2023-04-07T10:07:25.830Z,39.70
2023-04-07T10:10:28.746Z,39.72
2023-04-07T10:13:35.498Z,39.69
2023-04-07T10:16:40.563Z,39.47
2023-04-07T10:19:42.204Z,39.39
2023-04-07T10:22:46.675Z,39.39
2023-04-07T10:25:52.571Z,39.29
2023-04-07T10:29:00.825Z,39.33
2023-04-07T10:32:03.605Z,39.15
2023-04-07T10:35:06.624Z,39.09
2023-04-07T10:38:08.353Z,39.09
2023-04-07T10:41:33.913Z,39.23
2023-04-07T10:44:38.463Z,39.20
2023-04-07T10:48:10.993Z,39.03
2023-04-07T10:51:15.416Z,39.23
2023-04-07T10:54:23.183Z,39.07
2023-04-07T10:57:24.964Z,38.76
2023-04-07T11:00:26.532Z,38.91
2023-04-07T11:03:30.197Z,38.75
2023-04-07T11:06:32.238Z,38.94
2023-04-07T11:09:34.523Z,38.67
2023-04-07T11:12:36.266Z,38.98
2023-04-07T11:15:40.335Z,39.07
2023-04-07T11:18:43.281Z,38.92
2023-04-07T11:21:44.978Z,38.79
2023-04-07T11:24:47.337Z,38.72
2023-04-07T11:27:49.233Z,38.88
2023-04-07T11:30:52.850Z,38.80
2023-04-07T11:33:56.413Z,38.84
2023-04-07T11:37:02.044Z,38.80
2023-04-07T11:40:04.001Z,38.59
2023-04-07T11:43:17.344Z,38.47
2023-04-07T11:46:19.260Z,38.60
2023-04-07T11:49:21.557Z,38.54
2023-04-07T11:52:23.230Z,38.43
2023-04-07T11:55:24.791Z,38.34
2023-04-07T11:58:26.618Z,38.59
2023-04-07T12:01:40.920Z,38.76
2023-04-07T12:04:57.353Z,38.53
2023-04-07T12:07:59.084Z,38.39
2023-04-07T12:11:05.218Z,38.39
2023-04-07T12:14:07.107Z,38.40
2023-04-07T12:17:20.651Z,38.13
2023-04-07T12:20:22.277Z,38.29
2023-04-07T12:23:23.885Z,38.17
2023-04-07T12:26:25.728Z,38.34
2023-04-07T12:29:27.892Z,38.16
2023-04-07T12:32:29.600Z,38.17
2023-04-07T12:35:31.324Z,38.04
2023-04-07T12:38:32.988Z,38.26
2023-04-07T12:41:35.213Z,37.96
2023-04-07T12:44:37.316Z,38.16
2023-04-07T12:47:38.888Z,38.11
2023-04-07T12:50:40.562Z,38.06
2023-04-07T12:53:42.195Z,37.97
2023-04-07T12:56:43.758Z,37.87
2023-04-07T12:59:45.361Z,37.76
2023-04-07T13:02:47.260Z,38.01
2023-04-07T13:05:49.394Z,37.93
2023-04-07T13:08:51.802Z,37.70
2023-04-07T13:11:53.400Z,38.07
2023-04-07T13:15:00.064Z,37.89
2023-04-07T13:18:02.282Z,37.95
2023-04-07T13:24:08.744Z,37.88
2023-04-07T13:27:10.869Z,37.56
2023-04-07T13:30:13.659Z,37.80
2023-04-07T13:33:15.276Z,37.70
2023-04-07T13:36:16.889Z,37.76
2023-04-07T13:39:18.477Z,37.78
2023-04-07T13:42:21.002Z,37.61
2023-04-07T13:45:22.557Z,37.47
2023-04-07T13:48:24.149Z,37.30
2023-04-07T13:51:25.722Z,37.61
2023-04-07T13:54:27.365Z,37.55
2023-04-07T13:57:28.965Z,37.63
2023-04-07T14:00:30.679Z,37.64
2023-04-07T14:03:32.937Z,37.42
2023-04-07T14:06:36.670Z,37.23
2023-04-07T14:09:38.441Z,37.56
2023-04-07T14:12:40.400Z,37.27
2023-04-07T14:15:41.974Z,37.33
2023-04-07T14:18:44.483Z,37.63
2023-04-07T14:21:46.187Z,37.25
2023-04-07T14:24:47.720Z,37.46
2023-04-07T14:27:49.543Z,37.20
2023-04-07T14:30:51.590Z,37.22
2023-04-07T14:33:53.207Z,37.27
2023-04-07T14:36:56.383Z,37.10
2023-04-07T14:43:07.283Z,37.29
2023-04-07T14:46:09.289Z,37.33
2023-04-07T14:49:11.054Z,37.18
2023-04-07T14:52:14.181Z,37.09
2023-04-07T14:55:16.284Z,37.05
2023-04-07T14:58:17.903Z,36.99
2023-04-07T15:01:19.512Z,36.96
2023-04-07T15:04:21.186Z,37.16
2023-04-07T15:07:22.950Z,37.11
2023-04-07T15:10:24.604Z,36.86
2023-04-07T15:13:26.156Z,36.81
2023-04-07T15:16:27.734Z,36.86
2023-04-07T15:19:29.931Z,36.92
2023-04-07T15:22:31.529Z,36.86
2023-04-07T15:25:33.068Z,36.88
2023-04-07T15:28:34.908Z,36.89
2023-04-07T15:31:36.460Z,36.89
2023-04-07T15:34:38.153Z,36.83
2023-04-07T15:37:39.715Z,36.89
2023-04-07T15:40:41.512Z,36.73
2023-04-07T15:43:43.230Z,36.83
2023-04-07T15:46:44.974Z,36.91
2023-04-07T15:49:46.614Z,36.81
2023-04-07T15:52:48.316Z,36.80
2023-04-07T15:55:49.881Z,36.69
2023-04-07T15:58:51.622Z,36.87
2023-04-07T16:01:53.921Z,36.87
2023-04-07T16:04:55.522Z,36.74
2023-04-07T16:07:57.214Z,36.78
2023-04-07T16:10:59.011Z,36.80
2023-04-07T16:14:00.656Z,36.99
2023-04-07T16:17:02.415Z,36.93
2023-04-07T16:20:04.574Z,36.96
2023-04-07T16:23:06.175Z,36.92
2023-04-07T16:26:07.768Z,36.83
2023-04-07T16:29:09.302Z,36.92
2023-04-07T16:32:11.096Z,36.94
2023-04-07T16:35:16.135Z,36.86
2023-04-07T16:38:17.682Z,36.85
2023-04-07T16:41:20.223Z,36.89
2023-04-07T16:44:23.011Z,36.90
2023-04-07T16:47:26.237Z,36.95
2023-04-07T16:50:30.978Z,36.88
2023-04-07T16:53:32.550Z,37.01
2023-04-07T16:56:34.099Z,36.91
2023-04-07T16:59:35.955Z,37.06
2023-04-07T17:02:37.930Z,37.19
2023-04-07T17:05:40.199Z,37.14
2023-04-07T17:08:42.062Z,37.14
2023-04-07T17:11:43.596Z,37.13
2023-04-07T17:14:45.339Z,37.29
2023-04-07T17:17:46.972Z,37.27
2023-04-07T17:20:56.237Z,37.17
2023-04-07T17:23:57.827Z,37.25
2023-04-07T17:26:59.376Z,37.50
2023-04-07T17:30:00.958Z,37.34
2023-04-07T17:33:03.745Z,37.45
2023-04-07T17:36:05.420Z,37.56
2023-04-07T17:39:07.056Z,37.55
2023-04-07T17:42:11.200Z,37.61
2023-04-07T17:45:12.917Z,37.55
2023-04-07T17:48:14.603Z,37.66
2023-04-07T17:51:18.492Z,37.74
2023-04-07T17:54:20.062Z,37.77
2023-04-07T17:57:21.650Z,37.82
2023-04-07T18:00:23.707Z,37.83
2023-04-07T18:03:25.745Z,37.98
2023-04-07T18:06:28.568Z,37.99
2023-04-07T18:09:30.597Z,38.19
2023-04-07T18:12:32.236Z,38.18
2023-04-07T18:15:33.935Z,38.18
2023-04-07T18:18:38.107Z,38.30
2023-04-07T18:21:39.679Z,38.46
2023-04-07T18:24:41.218Z,38.38
2023-04-07T18:27:42.997Z,38.37
2023-04-07T18:30:44.821Z,38.62
2023-04-07T18:33:46.413Z,38.55
2023-04-07T18:36:48.477Z,38.72
2023-04-07T18:39:50.280Z,38.62
2023-04-07T18:42:52.013Z,38.75
2023-04-07T18:45:54.274Z,38.73
2023-04-07T18:48:55.865Z,38.74
2023-04-07T18:51:57.626Z,38.90
2023-04-07T18:54:59.258Z,39.07
2023-04-07T18:58:00.873Z,39.07
2023-04-07T19:01:02.645Z,39.12
2023-04-07T19:04:04.535Z,39.29
2023-04-07T19:07:06.303Z,39.24
2023-04-07T19:10:09.249Z,39.24
2023-04-07T19:13:11.059Z,39.26
2023-04-07T19:16:12.745Z,39.38
2023-04-07T19:19:14.420Z,39.42
2023-04-07T19:22:16.584Z,39.54
2023-04-07T19:25:18.095Z,39.57
2023-04-07T19:28:19.711Z,39.54
2023-04-07T19:31:21.273Z,39.69
2023-04-07T19:34:23.181Z,39.68
2023-04-07T19:37:24.746Z,39.65
2023-04-07T19:40:26.474Z,39.60
2023-04-07T19:43:28.021Z,39.89
2023-04-07T19:46:29.731Z,39.84
2023-04-07T19:49:31.627Z,40.04
2023-04-07T19:52:33.241Z,39.99
2023-04-07T19:55:34.788Z,40.07
2023-04-07T19:58:38.449Z,40.19
2023-04-07T20:01:40.231Z,40.43
2023-04-07T20:04:41.942Z,40.44
2023-04-07T20:07:44.227Z,40.50
2023-04-07T20:10:45.800Z,40.65
2023-04-07T20:13:48.441Z,40.59
2023-04-07T20:16:50.044Z,40.65
2023-04-07T20:19:54.637Z,40.75
2023-04-07T20:22:56.266Z,40.84
2023-04-07T20:25:57.830Z,40.88
2023-04-07T20:28:59.450Z,41.06
2023-04-07T20:32:01.164Z,40.85
2023-04-07T20:35:03.945Z,40.88
2023-04-07T20:38:06.058Z,41.09
2023-04-07T20:41:11.718Z,41.17
2023-04-07T20:44:13.324Z,41.08
2023-04-07T20:47:14.967Z,41.37
2023-04-07T20:50:17.042Z,41.28
2023-04-07T20:53:19.691Z,41.18
2023-04-07T20:56:21.784Z,41.37
2023-04-07T20:59:23.399Z,41.49
2023-04-07T21:02:25.165Z,41.44
2023-04-07T21:05:28.330Z,41.71
2023-04-07T21:08:29.927Z,41.54
2023-04-07T21:11:31.570Z,41.68
2023-04-07T21:14:33.195Z,41.63
2023-04-07T21:17:34.890Z,41.83
2023-04-07T21:20:37.557Z,41.88
2023-04-07T21:23:39.173Z,41.77
2023-04-07T21:26:40.908Z,41.81
2023-04-07T21:29:42.644Z,41.83
2023-04-07T21:32:47.145Z,41.99
2023-04-07T21:35:49.658Z,42.05
2023-04-07T21:38:52.362Z,42.21
2023-04-07T21:41:53.966Z,42.10
2023-04-07T21:44:55.826Z,42.31
2023-04-07T21:47:57.418Z,42.11
2023-04-07T21:50:59.044Z,42.41
2023-04-07T21:54:00.940Z,42.20
2023-04-07T21:57:02.493Z,42.37
2023-04-07T22:00:05.208Z,42.29
2023-04-07T22:03:07.461Z,42.57
2023-04-07T22:06:09.361Z,42.66
2023-04-07T22:09:11.158Z,42.50
2023-04-07T22:12:12.697Z,42.50
2023-04-07T22:15:14.328Z,42.63
2023-04-07T22:18:16.103Z,42.83
2023-04-07T22:21:17.949Z,42.79
2023-04-07T22:24:19.500Z,42.83
2023-04-07T22:27:21.169Z,42.69
2023-04-07T22:30:24.556Z,42.95
2023-04-07T22:33:26.197Z,42.90
2023-04-07T22:36:28.032Z,42.84
2023-04-07T22:39:29.671Z,43.02
2023-04-07T22:42:31.243Z,42.93
2023-04-07T22:45:32.833Z,42.99
2023-04-07T22:48:34.454Z,43.27
2023-04-07T22:51:36.589Z,43.09
2023-04-07T22:54:38.138Z,43.12
2023-04-07T22:57:39.714Z,43.37
2023-04-07T23:00:41.367Z,43.29
2023-04-07T23:03:43.049Z,43.39
2023-04-07T23:06:44.681Z,43.29
2023-04-07T23:09:46.692Z,43.36
2023-04-07T23:12:48.270Z,43.32
2023-04-07T23:15:49.916Z,43.25
2023-04-07T23:18:51.843Z,43.45
2023-04-07T23:21:53.886Z,43.45
2023-04-07T23:24:56.855Z,43.61
2023-04-07T23:27:58.402Z,43.52
2023-04-07T23:30:59.993Z,43.46
2023-04-07T23:34:01.542Z,43.45
2023-04-07T23:37:03.298Z,43.58
2023-04-07T23:40:06.627Z,43.81
2023-04-07T23:43:08.229Z,43.83
2023-04-07T23:46:09.831Z,43.69
2023-04-07T23:49:11.630Z,43.93
2023-04-07T23:52:13.210Z,43.82
2023-04-07T23:55:14.829Z,43.97
2023-04-07T23:58:16.719Z,44.06
